Time;durP1;ratioP1;P1;durP2;ratioP2;P2;SDS_P1;SDS_P2;PMS_P1;PMS_P2;Temp;Humidity;BMP_temperature;BMP_pressure;BME280_temperature;BME280_humidity;BME280_pressure;Samples;Min_cycle;Max_cycle;Signal;HPM_P1;HPM_P2
2023/10/02 00:01:19;;;;;;;10.63;7.57;;;;;;;;;;5054337;28;20411;-80
2023/10/02 00:03:48;;;;;;;9.25;7.50;;;;;;;;;;5059120;28;20473;-81
2023/10/02 00:06:18;;;;;;;10.67;7.57;;;;;;;;;;5061457;28;20471;-81
2023/10/02 00:08:49;;;;;;;10.15;7.82;;;;;;;;;;5061593;28;20415;-81
2023/10/02 00:11:36;;;;;;;9.43;7.90;;;;;;;;;;5060589;28;20382;-81
2023/10/02 00:14:19;;;;;;;10.27;7.57;;;;;;;;;;5060190;28;20386;-81
2023/10/02 00:16:59;;;;;;;9.77;7.75;;;;;;;;;;5059103;28;20386;-81
2023/10/02 00:19:27;;;;;;;9.63;7.47;;;;;;;;;;5061486;28;20887;-80
2023/10/02 00:21:57;;;;;;;9.82;7.55;;;;;;;;;;5061065;28;20382;-81
2023/10/02 00:24:24;;;;;;;10.15;7.32;;;;;;;;;;5057443;28;20882;-81
2023/10/02 00:26:51;;;;;;;9.13;7.18;;;;;;;;;;5060998;28;20396;-81
2023/10/02 00:29:17;;;;;;;9.77;7.25;;;;;;;;;;5059678;28;20387;-80
2023/10/02 00:31:46;;;;;;;10.40;7.50;;;;;;;;;;5060085;28;20382;-81
2023/10/02 00:34:15;;;;;;;10.30;7.78;;;;;;;;;;5060110;28;20388;-81
2023/10/02 00:36:41;;;;;;;10.98;8.00;;;;;;;;;;5059877;28;20389;-80
2023/10/02 00:39:30;;;;;;;10.63;7.70;;;;;;;;;;5059891;28;20438;-81
2023/10/02 00:42:15;;;;;;;9.10;7.57;;;;;;;;;;5059110;28;20846;-80
2023/10/02 00:44:52;;;;;;;10.88;7.82;;;;;;;;;;5059659;28;20440;-80
2023/10/02 00:47:48;;;;;;;9.68;7.63;;;;;;;;;;5060465;28;20381;-80
2023/10/02 00:50:21;;;;;;;10.48;7.45;;;;;;;;;;5059429;28;20389;-81
2023/10/02 00:52:52;;;;;;;9.25;7.32;;;;;;;;;;5046570;28;20696;-81
2023/10/02 00:55:20;;;;;;;11.05;7.80;;;;;;;;;;5060939;28;20384;-80
2023/10/02 00:57:49;;;;;;;10.25;7.28;;;;;;;;;;5060134;28;20374;-81
2023/10/02 01:00:30;;;;;;;8.73;7.00;;;;;;;;;;5058988;28;20901;-79
2023/10/02 01:02:57;;;;;;;9.00;7.07;;;;;;;;;;5056224;28;20484;-80
2023/10/02 01:05:30;;;;;;;10.27;7.40;;;;;;;;;;5057785;28;20381;-80
2023/10/02 01:07:56;;;;;;;10.80;7.20;;;;;;;;;;5056217;28;20398;-79
2023/10/02 01:10:29;;;;;;;9.07;7.00;;;;;;;;;;5058851;28;20828;-81
2023/10/02 01:13:01;;;;;;;9.27;7.30;;;;;;;;;;5060332;28;20640;-80
2023/10/02 01:15:27;;;;;;;9.88;7.10;;;;;;;;;;5060739;28;20392;-81
2023/10/02 01:17:54;;;;;;;10.13;7.22;;;;;;;;;;5060754;28;20382;-81
2023/10/02 01:20:39;;;;;;;8.88;7.05;;;;;;;;;;5059968;28;20385;-81
2023/10/02 01:23:12;;;;;;;9.82;7.07;;;;;;;;;;5059326;28;20413;-81
2023/10/02 01:25:42;;;;;;;9.60;7.88;;;;;;;;;;5060968;28;20397;-81
2023/10/02 01:28:10;;;;;;;10.73;8.13;;;;;;;;;;5060692;28;20786;-81
2023/10/02 01:30:36;;;;;;;11.07;7.43;;;;;;;;;;5060506;28;20377;-81
2023/10/02 01:33:12;;;;;;;9.52;7.20;;;;;;;;;;5059936;28;20468;-81
2023/10/02 01:35:58;;;;;;;9.80;7.60;;;;;;;;;;5059300;28;20388;-80
2023/10/02 01:38:31;;;;;;;9.88;7.10;;;;;;;;;;5059014;28;20472;-79
2023/10/02 01:41:05;;;;;;;10.88;7.38;;;;;;;;;;5059987;28;20416;-79
2023/10/02 01:43:36;;;;;;;10.02;7.07;;;;;;;;;;5062199;28;20413;-82
2023/10/02 01:46:03;;;;;;;10.18;7.22;;;;;;;;;;5063031;28;20397;-83
2023/10/02 01:48:44;;;;;;;9.13;7.07;;;;;;;;;;5062930;28;20381;-80
2023/10/02 01:51:20;;;;;;;9.45;6.90;;;;;;;;;;5063117;28;20388;-83
2023/10/02 01:53:48;;;;;;;9.48;7.25;;;;;;;;;;5063261;28;20411;-83
2023/10/02 01:56:15;;;;;;;9.80;7.22;;;;;;;;;;5062648;28;20412;-81
2023/10/02 01:58:41;;;;;;;7.87;6.90;;;;;;;;;;5062704;28;20401;-82
2023/10/02 02:01:11;;;;;;;10.25;7.07;;;;;;;;;;5063441;28;20389;-83
2023/10/02 02:03:49;;;;;;;9.48;7.00;;;;;;;;;;5054719;28;20510;-82
2023/10/02 02:06:22;;;;;;;8.63;6.78;;;;;;;;;;5045550;28;20702;-81
2023/10/02 02:08:52;;;;;;;9.13;6.93;;;;;;;;;;5060184;28;20378;-82
2023/10/02 02:11:23;;;;;;;10.43;7.28;;;;;;;;;;5049484;28;20410;-82
2023/10/02 02:13:58;;;;;;;9.80;7.38;;;;;;;;;;5062941;28;20377;-82
2023/10/02 02:16:33;;;;;;;10.15;6.90;;;;;;;;;;5062197;28;20397;-82
2023/10/02 02:19:05;;;;;;;10.05;7.60;;;;;;;;;;5052771;28;20378;-83
2023/10/02 02:21:31;;;;;;;9.25;6.65;;;;;;;;;;5061178;28;20729;-81
2023/10/02 02:24:06;;;;;;;8.23;6.78;;;;;;;;;;5062197;28;20894;-82
2023/10/02 02:26:37;;;;;;;8.23;6.90;;;;;;;;;;5062481;28;20396;-82
2023/10/02 02:29:04;;;;;;;9.55;6.20;;;;;;;;;;5049051;28;20448;-82
2023/10/02 02:31:31;;;;;;;9.57;6.85;;;;;;;;;;5062868;28;20386;-82
2023/10/02 02:33:58;;;;;;;8.85;6.15;;;;;;;;;;5061567;28;20380;-82
2023/10/02 02:36:25;;;;;;;9.00;6.73;;;;;;;;;;5062836;28;20385;-82
2023/10/02 02:39:15;;;;;;;10.07;7.10;;;;;;;;;;5062004;28;20377;-83
2023/10/02 02:41:38;;;;;;;8.48;7.03;;;;;;;;;;5062556;28;20407;-82
2023/10/02 02:44:04;;;;;;;9.23;6.88;;;;;;;;;;5062248;28;20942;-83
2023/10/02 02:46:32;;;;;;;8.90;6.63;;;;;;;;;;5062795;28;20397;-82
2023/10/02 02:49:00;;;;;;;9.82;7.03;;;;;;;;;;5062063;28;20846;-82
2023/10/02 02:51:26;;;;;;;8.90;6.70;;;;;;;;;;5062328;28;20389;-82
2023/10/02 02:53:52;;;;;;;8.43;6.50;;;;;;;;;;5061436;28;20401;-82
2023/10/02 02:56:22;;;;;;;9.63;7.28;;;;;;;;;;5062157;28;20402;-82
2023/10/02 02:58:49;;;;;;;9.32;6.70;;;;;;;;;;5061552;28;20449;-81
2023/10/02 03:01:21;;;;;;;8.25;6.65;;;;;;;;;;5060526;28;20420;-83
2023/10/02 03:03:48;;;;;;;10.32;6.60;;;;;;;;;;5060252;28;20413;-81
2023/10/02 03:06:17;;;;;;;8.20;6.22;;;;;;;;;;5060062;28;20709;-81
2023/10/02 03:08:44;;;;;;;8.82;6.20;;;;;;;;;;5060466;28;20411;-79
2023/10/02 03:11:10;;;;;;;8.23;6.32;;;;;;;;;;5061585;28;20843;-82
2023/10/02 03:13:39;;;;;;;9.35;6.50;;;;;;;;;;5062154;28;20461;-82
2023/10/02 03:16:19;;;;;;;9.67;6.90;;;;;;;;;;5061694;28;20430;-81
2023/10/02 03:18:48;;;;;;;8.82;6.38;;;;;;;;;;5049290;28;20409;-82
2023/10/02 03:21:30;;;;;;;10.00;7.03;;;;;;;;;;5061408;28;20381;-82
2023/10/02 03:23:59;;;;;;;7.72;6.10;;;;;;;;;;5061258;28;20453;-82
2023/10/02 03:26:37;;;;;;;8.43;6.80;;;;;;;;;;5062324;28;20381;-81
2023/10/02 03:29:03;;;;;;;9.10;6.45;;;;;;;;;;5061788;28;20385;-83
2023/10/02 03:31:37;;;;;;;8.75;6.50;;;;;;;;;;5060985;28;20877;-81
2023/10/02 03:34:27;;;;;;;7.75;6.25;;;;;;;;;;5059965;28;20724;-83
2023/10/02 03:36:59;;;;;;;7.60;6.20;;;;;;;;;;5060941;28;20843;-82
2023/10/02 03:42:14;;;;;;;8.93;6.70;;;;;;;;;;5061542;28;20453;-82
2023/10/02 03:44:42;;;;;;;9.15;6.43;;;;;;;;;;5061574;28;20393;-81
2023/10/02 03:47:12;;;;;;;8.35;6.25;;;;;;;;;;5061146;28;20386;-83
2023/10/02 03:49:38;;;;;;;8.13;6.47;;;;;;;;;;5060842;28;20388;-81
2023/10/02 03:52:05;;;;;;;7.83;6.10;;;;;;;;;;5060856;28;20389;-82
2023/10/02 03:54:33;;;;;;;8.52;6.28;;;;;;;;;;5061602;28;20385;-82
2023/10/02 03:57:01;;;;;;;9.43;6.43;;;;;;;;;;5061228;28;20388;-81
2023/10/02 03:59:31;;;;;;;10.27;6.80;;;;;;;;;;5061386;28;20869;-81
2023/10/02 04:02:24;;;;;;;8.03;6.40;;;;;;;;;;5051007;28;20479;-82
2023/10/02 04:04:46;;;;;;;8.68;6.40;;;;;;;;;;5043734;28;20401;-82
2023/10/02 04:07:12;;;;;;;7.68;6.45;;;;;;;;;;5057132;28;20397;-82
2023/10/02 04:09:38;;;;;;;8.13;6.20;;;;;;;;;;5057517;28;20424;-83
2023/10/02 04:12:06;;;;;;;9.15;6.97;;;;;;;;;;5053862;28;20394;-82
2023/10/02 04:14:32;;;;;;;7.75;6.20;;;;;;;;;;5045877;28;20388;-81
2023/10/02 04:19:58;;;;;;;9.50;6.70;;;;;;;;;;5060488;28;20378;-82
2023/10/02 04:22:25;;;;;;;8.55;6.25;;;;;;;;;;5061173;28;20393;-83
2023/10/02 04:24:58;;;;;;;11.18;6.30;;;;;;;;;;5060936;28;20413;-83
2023/10/02 04:28:00;;;;;;;8.02;6.25;;;;;;;;;;5061104;28;20378;-82
2023/10/02 04:33:18;;;;;;;7.13;5.75;;;;;;;;;;5059707;28;20417;-82
2023/10/02 04:35:47;;;;;;;8.07;6.45;;;;;;;;;;5056269;28;20381;-82
2023/10/02 04:38:47;;;;;;;9.48;6.43;;;;;;;;;;5060226;28;20770;-80
2023/10/02 04:41:09;;;;;;;7.47;6.13;;;;;;;;;;5059852;28;20418;-82
2023/10/02 04:43:35;;;;;;;9.18;6.65;;;;;;;;;;5060356;28;20412;-82
2023/10/02 04:46:01;;;;;;;9.50;6.77;;;;;;;;;;5060751;28;20384;-82
2023/10/02 04:48:38;;;;;;;8.85;6.70;;;;;;;;;;5059467;28;20445;-81
2023/10/02 04:51:07;;;;;;;8.85;6.45;;;;;;;;;;5057686;28;20400;-82
2023/10/02 04:53:35;;;;;;;8.15;6.13;;;;;;;;;;5060262;28;20388;-82
2023/10/02 04:56:09;;;;;;;8.00;6.47;;;;;;;;;;5059530;28;20385;-81
2023/10/02 04:59:21;;;;;;;7.43;5.90;;;;;;;;;;5047254;28;20803;-82
2023/10/02 05:01:28;;;;;;;9.30;6.40;;;;;;;;;;5035315;28;20814;-81
2023/10/02 05:03:55;;;;;;;9.73;6.50;;;;;;;;;;5052234;28;20421;-81
2023/10/02 05:11:53;;;;;;;8.82;6.05;;;;;;;;;;5049473;28;20389;-80
2023/10/02 05:14:34;;;;;;;8.07;6.32;;;;;;;;;;5049047;28;20389;-80
2023/10/02 05:17:16;;;;;;;9.88;6.28;;;;;;;;;;5042964;28;20391;-80
2023/10/02 05:19:56;;;;;;;7.80;6.20;;;;;;;;;;5049500;28;20389;-81
2023/10/02 05:22:24;;;;;;;7.05;5.90;;;;;;;;;;5060507;28;20863;-82
2023/10/02 05:24:58;;;;;;;6.70;5.82;;;;;;;;;;5059176;28;20387;-80
2023/10/02 05:27:29;;;;;;;7.57;6.20;;;;;;;;;;5059548;28;20465;-81
2023/10/02 05:29:55;;;;;;;7.70;6.20;;;;;;;;;;5057705;28;20445;-82
2023/10/02 05:32:23;;;;;;;8.57;6.07;;;;;;;;;;5059268;28;20389;-81
2023/10/02 05:37:43;;;;;;;8.70;6.13;;;;;;;;;;5061312;28;20464;-81
2023/10/02 05:43:55;;;;;;;8.82;6.88;;;;;;;;;;5064229;28;20417;-83
2023/10/02 05:50:49;;;;;;;8.60;6.43;;;;;;;;;;5064268;28;20385;-82
2023/10/02 05:53:25;;;;;;;9.27;6.25;;;;;;;;;;5064156;28;20400;-82
2023/10/02 05:55:56;;;;;;;8.20;6.72;;;;;;;;;;5065181;28;20451;-83
2023/10/02 05:58:31;;;;;;;8.93;7.03;;;;;;;;;;5062838;28;20388;-81
2023/10/02 06:01:03;;;;;;;10.48;7.63;;;;;;;;;;5061335;28;20384;-82
2023/10/02 06:03:35;;;;;;;9.15;7.30;;;;;;;;;;5063805;28;20412;-81
2023/10/02 06:06:23;;;;;;;8.13;7.07;;;;;;;;;;5064016;28;20397;-82
2023/10/02 06:08:55;;;;;;;9.93;7.13;;;;;;;;;;5063807;28;20377;-81
2023/10/02 06:11:31;;;;;;;10.63;8.07;;;;;;;;;;5063646;28;20424;-83
2023/10/02 06:14:09;;;;;;;12.05;8.70;;;;;;;;;;5063597;28;20449;-82
2023/10/02 06:16:35;;;;;;;9.40;8.13;;;;;;;;;;5059311;28;20386;-82
2023/10/02 06:19:01;;;;;;;10.52;8.25;;;;;;;;;;5063264;28;20385;-82
2023/10/02 06:21:47;;;;;;;9.88;7.72;;;;;;;;;;5064450;28;20385;-83
2023/10/02 06:24:13;;;;;;;11.15;7.88;;;;;;;;;;5064057;28;20405;-82
2023/10/02 06:29:38;;;;;;;19.65;9.77;;;;;;;;;;5034789;28;20433;-82
2023/10/02 06:32:05;;;;;;;21.95;10.13;;;;;;;;;;5032323;28;20414;-83
2023/10/02 06:34:38;;;;;;;26.90;10.60;;;;;;;;;;5054443;28;20390;-83
2023/10/02 06:37:11;;;;;;;28.63;12.07;;;;;;;;;;5054365;28;20382;-83
2023/10/02 06:39:39;;;;;;;25.63;10.68;;;;;;;;;;5037211;28;20391;-83
2023/10/02 06:42:06;;;;;;;28.52;11.52;;;;;;;;;;5054166;28;20523;-82
2023/10/02 06:44:41;;;;;;;26.52;12.23;;;;;;;;;;5036615;28;20424;-83
2023/10/02 06:47:11;;;;;;;29.98;12.43;;;;;;;;;;5036740;28;20419;-83
2023/10/02 06:49:39;;;;;;;25.23;11.70;;;;;;;;;;5045592;28;20388;-83
2023/10/02 06:52:13;;;;;;;26.97;12.50;;;;;;;;;;5044645;28;20399;-82
2023/10/02 06:54:43;;;;;;;25.55;12.43;;;;;;;;;;5054531;28;21032;-83
2023/10/02 06:57:11;;;;;;;32.13;13.80;;;;;;;;;;5055364;28;20395;-83
2023/10/02 06:59:38;;;;;;;43.80;16.70;;;;;;;;;;5054271;28;20464;-83
2023/10/02 07:02:06;;;;;;;39.67;15.93;;;;;;;;;;5037052;28;20398;-83
2023/10/02 07:04:35;;;;;;;38.88;15.52;;;;;;;;;;5054759;28;20889;-83
2023/10/02 07:07:04;;;;;;;44.55;18.52;;;;;;;;;;5036487;28;20393;-83
2023/10/02 07:09:35;;;;;;;42.10;17.33;;;;;;;;;;5054342;28;20519;-82
2023/10/02 07:12:14;;;;;;;41.47;16.73;;;;;;;;;;5053856;28;20389;-83
2023/10/02 07:14:41;;;;;;;49.85;18.80;;;;;;;;;;5054111;28;20417;-83
2023/10/02 07:17:17;;;;;;;57.25;20.58;;;;;;;;;;5054245;28;20390;-83
2023/10/02 07:20:00;;;;;;;51.25;20.48;;;;;;;;;;5036068;28;20389;-83
2023/10/02 07:22:26;;;;;;;42.60;18.90;;;;;;;;;;5054668;28;20385;-83
2023/10/02 07:24:55;;;;;;;42.08;18.45;;;;;;;;;;5067266;22;20389;-83
2023/10/02 07:27:28;;;;;;;40.55;17.70;;;;;;;;;;5038815;28;20391;-83
2023/10/02 07:29:58;;;;;;;40.92;18.63;;;;;;;;;;5038216;28;20383;-83
2023/10/02 07:32:28;;;;;;;30.10;16.20;;;;;;;;;;5038125;28;20402;-83
2023/10/02 07:34:55;;;;;;;34.38;17.30;;;;;;;;;;5013021;28;20438;-83
2023/10/02 07:37:22;;;;;;;34.55;16.92;;;;;;;;;;5038474;28;20803;-83
2023/10/02 07:39:49;;;;;;;28.67;15.77;;;;;;;;;;5037157;28;20383;-83
2023/10/02 07:42:16;;;;;;;32.45;16.27;;;;;;;;;;5037067;28;20383;-82
2023/10/02 07:44:42;;;;;;;38.65;18.88;;;;;;;;;;5037505;28;20449;-83
2023/10/02 07:47:11;;;;;;;33.25;17.20;;;;;;;;;;5037288;28;20387;-83
2023/10/02 07:49:40;;;;;;;28.95;16.10;;;;;;;;;;5037734;28;20525;-83
2023/10/02 07:52:11;;;;;;;28.27;16.60;;;;;;;;;;5038389;28;20382;-83
2023/10/02 07:54:48;;;;;;;32.43;19.60;;;;;;;;;;5037828;28;20890;-82
2023/10/02 07:57:14;;;;;;;29.63;18.88;;;;;;;;;;5037440;28;20379;-83
2023/10/02 07:59:43;;;;;;;34.53;21.13;;;;;;;;;;5035476;28;20379;-83
2023/10/02 08:02:22;;;;;;;41.17;22.25;;;;;;;;;;5037899;28;20449;-82
2023/10/02 08:04:49;;;;;;;36.78;22.23;;;;;;;;;;5034147;28;20418;-83
2023/10/02 08:07:16;;;;;;;34.00;20.67;;;;;;;;;;5037216;28;20406;-83
2023/10/02 08:09:47;;;;;;;35.72;21.08;;;;;;;;;;5037151;28;20394;-83
2023/10/02 08:12:29;;;;;;;33.17;21.00;;;;;;;;;;5038223;28;20860;-82
2023/10/02 08:14:57;;;;;;;30.55;19.65;;;;;;;;;;5037825;28;20398;-83
2023/10/02 08:20:19;;;;;;;37.20;22.27;;;;;;;;;;5037948;28;20394;-83
2023/10/02 08:22:46;;;;;;;36.83;23.40;;;;;;;;;;5037857;28;20407;-83
2023/10/02 08:25:13;;;;;;;37.70;22.65;;;;;;;;;;5038125;28;20387;-83
2023/10/02 08:27:41;;;;;;;35.08;21.88;;;;;;;;;;5037828;28;20379;-83
2023/10/02 08:30:19;;;;;;;29.55;19.95;;;;;;;;;;5038525;28;20395;-83
2023/10/02 08:32:45;;;;;;;25.80;18.35;;;;;;;;;;5039165;28;20383;-83
2023/10/02 08:35:13;;;;;;;29.77;21.00;;;;;;;;;;5038638;28;20414;-83
2023/10/02 08:37:40;;;;;;;37.95;23.27;;;;;;;;;;5036724;28;20398;-83
2023/10/02 08:40:08;;;;;;;29.25;20.73;;;;;;;;;;5018998;28;20402;-83
2023/10/02 08:42:34;;;;;;;29.40;19.58;;;;;;;;;;5037259;28;20984;-83
2023/10/02 08:45:01;;;;;;;31.40;21.40;;;;;;;;;;5036202;28;20406;-83
2023/10/02 08:47:28;;;;;;;29.80;20.63;;;;;;;;;;5036678;28;20385;-83
2023/10/02 08:50:04;;;;;;;32.78;21.80;;;;;;;;;;5035999;28;20482;-82
2023/10/02 08:52:38;;;;;;;30.35;21.40;;;;;;;;;;5036027;28;20390;-83
2023/10/02 08:55:33;;;;;;;27.77;19.50;;;;;;;;;;5018918;28;20399;-83
2023/10/02 08:58:15;;;;;;;27.20;19.98;;;;;;;;;;5020043;28;20818;-83
2023/10/02 09:01:05;;;;;;;33.75;23.15;;;;;;;;;;5037046;28;20389;-83
2023/10/02 09:03:41;;;;;;;31.80;21.95;;;;;;;;;;5024908;28;20410;-83
2023/10/02 09:06:25;;;;;;;33.47;21.48;;;;;;;;;;5037397;28;20399;-83
2023/10/02 09:11:37;;;;;;;30.47;19.77;;;;;;;;;;5036142;28;20830;-83
2023/10/02 09:16:45;;;;;;;32.33;20.77;;;;;;;;;;5035460;28;20387;-83
2023/10/02 09:19:30;;;;;;;32.88;19.17;;;;;;;;;;5037445;28;20919;-83
2023/10/02 09:22:06;;;;;;;30.50;20.15;;;;;;;;;;5036163;28;20387;-83
2023/10/02 09:24:36;;;;;;;37.15;22.38;;;;;;;;;;5036644;28;20776;-83
2023/10/02 09:27:28;;;;;;;37.13;21.33;;;;;;;;;;5035497;28;20383;-83
2023/10/02 09:32:48;;;;;;;31.33;19.88;;;;;;;;;;5036998;28;20493;-83
2023/10/02 09:35:23;;;;;;;29.65;19.35;;;;;;;;;;5018866;28;20562;-83
2023/10/02 09:37:56;;;;;;;32.17;20.67;;;;;;;;;;5037897;28;20418;-83
2023/10/02 09:40:51;;;;;;;35.22;19.83;;;;;;;;;;5035493;28;20876;-83
2023/10/02 09:43:17;;;;;;;31.02;19.40;;;;;;;;;;5035867;28;20930;-83
2023/10/02 09:45:46;;;;;;;34.25;19.73;;;;;;;;;;5035708;28;20387;-83
2023/10/02 09:48:46;;;;;;;29.67;17.38;;;;;;;;;;5036008;28;20390;-83
2023/10/02 09:51:06;;;;;;;38.58;20.50;;;;;;;;;;5036566;28;20386;-83
2023/10/02 09:53:34;;;;;;;30.47;18.27;;;;;;;;;;5034467;28;20410;-83
2023/10/02 09:56:14;;;;;;;30.75;18.35;;;;;;;;;;5023154;28;20378;-83
2023/10/02 09:58:53;;;;;;;26.20;16.55;;;;;;;;;;5036323;28;20871;-83
2023/10/02 10:03:51;;;;;;;28.13;16.30;;;;;;;;;;5039053;28;20515;-83
2023/10/02 10:06:19;;;;;;;30.67;15.85;;;;;;;;;;5037284;28;20383;-83
2023/10/02 10:11:45;;;;;;;28.73;15.52;;;;;;;;;;5039431;28;20374;-83
2023/10/02 10:14:41;;;;;;;25.25;14.90;;;;;;;;;;5031342;28;20418;-83
2023/10/02 10:17:17;;;;;;;29.50;16.90;;;;;;;;;;5039397;28;20413;-83
2023/10/02 10:19:49;;;;;;;30.10;17.27;;;;;;;;;;5039013;28;20486;-83
2023/10/02 10:22:35;;;;;;;28.85;16.67;;;;;;;;;;5039641;28;20391;-83
2023/10/02 10:27:41;;;;;;;30.33;16.80;;;;;;;;;;5040007;28;20779;-83
2023/10/02 10:30:27;;;;;;;32.00;16.17;;;;;;;;;;5039046;28;20415;-83
2023/10/02 10:35:34;;;;;;;28.77;17.73;;;;;;;;;;5039306;28;20399;-83
2023/10/02 10:38:03;;;;;;;36.22;19.63;;;;;;;;;;5039508;28;20387;-83
2023/10/02 10:40:50;;;;;;;40.28;21.15;;;;;;;;;;5040236;28;20395;-83
2023/10/02 10:43:17;;;;;;;36.83;20.40;;;;;;;;;;5039570;28;20411;-84
2023/10/02 10:45:52;;;;;;;37.13;20.67;;;;;;;;;;5039341;28;20780;-83
2023/10/02 10:48:24;;;;;;;44.08;23.15;;;;;;;;;;5039809;28;20803;-83
2023/10/02 10:50:59;;;;;;;38.67;20.60;;;;;;;;;;5040045;28;20428;-83
2023/10/02 10:53:26;;;;;;;41.97;21.58;;;;;;;;;;5040610;28;20387;-83
2023/10/02 10:55:54;;;;;;;36.20;19.02;;;;;;;;;;5039910;28;20901;-83
2023/10/02 10:58:33;;;;;;;38.15;19.90;;;;;;;;;;5039925;28;20387;-84
2023/10/02 11:01:13;;;;;;;42.22;21.92;;;;;;;;;;5039622;28;20392;-84
2023/10/02 11:03:39;;;;;;;42.40;21.90;;;;;;;;;;5039219;28;20442;-84
2023/10/02 11:06:06;;;;;;;40.05;20.80;;;;;;;;;;5040207;28;20380;-84
2023/10/02 11:08:38;;;;;;;39.35;20.50;;;;;;;;;;5040119;28;20391;-84
2023/10/02 11:11:10;;;;;;;44.33;21.88;;;;;;;;;;5040230;28;20395;-84
2023/10/02 11:14:01;;;;;;;36.40;20.52;;;;;;;;;;5040388;28;20383;-84
2023/10/02 11:16:34;;;;;;;37.80;19.63;;;;;;;;;;5040401;28;20863;-84
2023/10/02 11:22:26;;;;;;;37.55;19.95;;;;;;;;;;5040638;28;20737;-84
2023/10/02 11:24:53;;;;;;;38.83;21.08;;;;;;;;;;5039718;28;20434;-84
2023/10/02 11:27:20;;;;;;;38.80;20.70;;;;;;;;;;5039983;28;20415;-83
2023/10/02 11:30:03;;;;;;;41.95;21.75;;;;;;;;;;5040850;28;20752;-83
2023/10/02 11:32:54;;;;;;;38.30;20.70;;;;;;;;;;5040847;28;20472;-84
2023/10/02 11:35:21;;;;;;;39.35;20.52;;;;;;;;;;5040031;28;20375;-84
2023/10/02 11:37:48;;;;;;;37.90;21.33;;;;;;;;;;5040691;28;20391;-84
2023/10/02 11:40:14;;;;;;;36.05;20.13;;;;;;;;;;5039266;28;20383;-85
2023/10/02 11:42:40;;;;;;;36.42;20.85;;;;;;;;;;5040139;28;20441;-85
2023/10/02 11:45:07;;;;;;;40.65;20.58;;;;;;;;;;5040064;28;20816;-83
2023/10/02 11:47:33;;;;;;;37.53;21.15;;;;;;;;;;5032952;28;20402;-83
2023/10/02 11:50:00;;;;;;;39.00;20.77;;;;;;;;;;5039928;28;20399;-83
2023/10/02 11:52:26;;;;;;;32.67;18.92;;;;;;;;;;5041607;28;20602;-83
2023/10/02 11:54:54;;;;;;;37.15;19.95;;;;;;;;;;5041258;28;20383;-83
2023/10/02 11:57:20;;;;;;;34.22;19.35;;;;;;;;;;5041273;28;20414;-83
2023/10/02 11:59:47;;;;;;;38.33;19.67;;;;;;;;;;5040164;28;20437;-86
2023/10/02 12:02:16;;;;;;;37.70;20.33;;;;;;;;;;5040039;28;20386;-86
2023/10/02 12:04:43;;;;;;;41.10;20.55;;;;;;;;;;5039588;28;20415;-84
2023/10/02 12:07:15;;;;;;;41.42;22.58;;;;;;;;;;5030145;28;20395;-84
2023/10/02 12:09:43;;;;;;;40.88;20.45;;;;;;;;;;5025841;28;20466;-83
2023/10/02 12:12:11;;;;;;;41.10;21.92;;;;;;;;;;5038137;28;20741;-84
2023/10/02 12:14:39;;;;;;;40.55;21.25;;;;;;;;;;5039342;28;20383;-84
2023/10/02 12:17:05;;;;;;;39.63;21.70;;;;;;;;;;5039774;28;20839;-84
2023/10/02 12:19:36;;;;;;;43.05;21.95;;;;;;;;;;5039844;28;20386;-84
2023/10/02 12:22:06;;;;;;;43.92;23.35;;;;;;;;;;5041846;28;20379;-84
2023/10/02 12:24:35;;;;;;;39.33;20.33;;;;;;;;;;5040825;28;20426;-84
2023/10/02 12:27:01;;;;;;;37.42;20.67;;;;;;;;;;5039969;28;20394;-84
2023/10/02 12:29:29;;;;;;;38.38;21.08;;;;;;;;;;5041567;28;20726;-84
2023/10/02 12:31:58;;;;;;;36.20;20.80;;;;;;;;;;5041189;28;20678;-84
2023/10/02 12:34:26;;;;;;;41.33;22.27;;;;;;;;;;5041497;28;20398;-84
2023/10/02 12:36:53;;;;;;;37.65;20.92;;;;;;;;;;5041363;28;20398;-84
2023/10/02 12:39:19;;;;;;;40.33;22.10;;;;;;;;;;5040780;28;20776;-84
2023/10/02 12:41:45;;;;;;;39.77;21.83;;;;;;;;;;5040733;28;20864;-84
2023/10/02 12:44:12;;;;;;;38.78;21.60;;;;;;;;;;5040531;28;20429;-84
2023/10/02 12:46:43;;;;;;;42.88;22.95;;;;;;;;;;5039037;28;20404;-84
2023/10/02 12:49:09;;;;;;;42.63;22.83;;;;;;;;;;5039888;28;20451;-84
2023/10/02 12:51:35;;;;;;;45.50;22.90;;;;;;;;;;5038947;28;20948;-84
2023/10/02 12:54:01;;;;;;;41.22;22.77;;;;;;;;;;5040518;28;20376;-84
2023/10/02 12:56:27;;;;;;;42.65;23.55;;;;;;;;;;5040061;28;20403;-84
2023/10/02 12:58:54;;;;;;;43.88;23.35;;;;;;;;;;5039271;28;20466;-84
2023/10/02 13:01:24;;;;;;;43.95;23.25;;;;;;;;;;5039870;28;20768;-84
2023/10/02 13:03:51;;;;;;;42.25;23.63;;;;;;;;;;5038861;28;20418;-84
2023/10/02 13:06:17;;;;;;;41.88;22.20;;;;;;;;;;5039339;28;20440;-84
2023/10/02 13:08:43;;;;;;;41.25;22.30;;;;;;;;;;5041157;28;20394;-85
2023/10/02 13:11:13;;;;;;;40.40;21.63;;;;;;;;;;5039616;28;20458;-84
2023/10/02 13:13:44;;;;;;;37.95;22.77;;;;;;;;;;5039960;28;20379;-84
2023/10/02 13:16:11;;;;;;;39.92;22.40;;;;;;;;;;5039739;28;20876;-84
2023/10/02 13:18:38;;;;;;;41.03;22.58;;;;;;;;;;5040593;28;20377;-84
2023/10/02 13:21:07;;;;;;;41.70;22.42;;;;;;;;;;5039843;28;20857;-84
2023/10/02 13:23:33;;;;;;;39.97;22.50;;;;;;;;;;5037385;28;20513;-85
2023/10/02 13:25:59;;;;;;;41.28;21.95;;;;;;;;;;5034673;28;20442;-84
2023/10/02 13:28:25;;;;;;;44.60;23.42;;;;;;;;;;5034238;28;20395;-84
2023/10/02 13:30:52;;;;;;;39.58;21.88;;;;;;;;;;5030766;28;20386;-84
2023/10/02 13:33:20;;;;;;;40.55;23.05;;;;;;;;;;5035110;28;20375;-84
2023/10/02 13:35:54;;;;;;;41.00;22.45;;;;;;;;;;5035113;28;20387;-84
2023/10/02 13:38:20;;;;;;;40.90;22.20;;;;;;;;;;5038708;28;20399;-84
2023/10/02 13:40:47;;;;;;;39.97;21.38;;;;;;;;;;5038263;28;20387;-84
2023/10/02 13:43:13;;;;;;;43.95;22.88;;;;;;;;;;5038392;28;20415;-84
2023/10/02 13:45:39;;;;;;;41.25;21.88;;;;;;;;;;5037523;28;20389;-84
2023/10/02 13:48:06;;;;;;;42.70;22.60;;;;;;;;;;5037770;28;20394;-84
2023/10/02 13:50:37;;;;;;;43.90;23.70;;;;;;;;;;5036555;28;20932;-84
2023/10/02 13:53:04;;;;;;;46.30;23.70;;;;;;;;;;5037026;28;20387;-84
2023/10/02 13:55:35;;;;;;;41.78;22.92;;;;;;;;;;5023561;28;20480;-84
2023/10/02 13:58:01;;;;;;;41.53;22.60;;;;;;;;;;5027761;28;20391;-84
2023/10/02 14:00:35;;;;;;;45.05;23.45;;;;;;;;;;5037484;28;20394;-83
2023/10/02 14:03:01;;;;;;;41.58;23.00;;;;;;;;;;5037430;28;20437;-83
2023/10/02 14:05:29;;;;;;;43.33;23.17;;;;;;;;;;5033057;28;20399;-83
2023/10/02 14:07:55;;;;;;;47.10;25.07;;;;;;;;;;5037472;28;20852;-83
2023/10/02 14:10:21;;;;;;;48.05;26.00;;;;;;;;;;5037254;28;20383;-84
2023/10/02 14:12:47;;;;;;;47.10;25.38;;;;;;;;;;5037842;28;20754;-84
2023/10/02 14:15:16;;;;;;;48.28;25.00;;;;;;;;;;5037623;28;20470;-83
2023/10/02 14:17:43;;;;;;;43.72;23.80;;;;;;;;;;5034178;28;20462;-84
2023/10/02 14:20:14;;;;;;;43.08;23.38;;;;;;;;;;5038257;28;20403;-84
2023/10/02 14:22:41;;;;;;;42.92;23.45;;;;;;;;;;5037164;28;20387;-83
2023/10/02 14:25:07;;;;;;;46.22;24.48;;;;;;;;;;5038541;28;20486;-83
2023/10/02 14:27:33;;;;;;;46.03;24.25;;;;;;;;;;5037574;28;20406;-83
2023/10/02 14:29:59;;;;;;;44.25;24.00;;;;;;;;;;5037150;28;20384;-84
2023/10/02 14:32:25;;;;;;;44.05;23.30;;;;;;;;;;5034725;28;20382;-84
2023/10/02 14:34:54;;;;;;;43.10;22.95;;;;;;;;;;5091840;22;20941;-84
2023/10/02 14:37:22;;;;;;;45.75;24.15;;;;;;;;;;5097115;28;20406;-84
2023/10/02 14:39:50;;;;;;;42.95;23.60;;;;;;;;;;5085539;28;20808;-84
2023/10/02 14:42:18;;;;;;;46.47;24.27;;;;;;;;;;5097570;28;20770;-84
2023/10/02 14:44:44;;;;;;;44.58;24.33;;;;;;;;;;5097454;28;20424;-84
2023/10/02 14:47:10;;;;;;;47.70;24.75;;;;;;;;;;5095180;28;20386;-84
2023/10/02 14:49:36;;;;;;;45.97;24.93;;;;;;;;;;5097205;28;20473;-84
2023/10/02 14:52:03;;;;;;;45.53;24.80;;;;;;;;;;5079191;28;20417;-83
2023/10/02 14:54:30;;;;;;;44.60;24.55;;;;;;;;;;5097651;28;20397;-84
2023/10/02 14:56:56;;;;;;;45.17;24.35;;;;;;;;;;5097411;28;20878;-84
2023/10/02 14:59:22;;;;;;;42.83;23.75;;;;;;;;;;5097279;28;20408;-84
2023/10/02 15:01:49;;;;;;;47.85;24.88;;;;;;;;;;5097400;28;20898;-84
2023/10/02 15:04:16;;;;;;;46.10;24.42;;;;;;;;;;5095408;28;20921;-84
2023/10/02 15:06:43;;;;;;;47.15;24.90;;;;;;;;;;5097474;28;20386;-84
2023/10/02 15:09:09;;;;;;;44.42;24.52;;;;;;;;;;5098035;28;20386;-84
2023/10/02 15:11:38;;;;;;;48.38;25.88;;;;;;;;;;5097843;28;20431;-84
2023/10/02 15:14:08;;;;;;;44.30;23.48;;;;;;;;;;5097640;28;20873;-84
2023/10/02 15:16:37;;;;;;;38.63;21.33;;;;;;;;;;5093553;28;20732;-83
2023/10/02 15:19:03;;;;;;;39.75;21.52;;;;;;;;;;5078606;28;20387;-84
2023/10/02 15:21:29;;;;;;;40.40;22.33;;;;;;;;;;5069946;28;20392;-84
2023/10/02 15:23:58;;;;;;;39.33;21.73;;;;;;;;;;5088322;28;20770;-84
2023/10/02 15:26:24;;;;;;;38.47;21.70;;;;;;;;;;5093822;28;20378;-84
2023/10/02 15:28:50;;;;;;;38.22;20.95;;;;;;;;;;5090905;28;20384;-84
2023/10/02 15:31:18;;;;;;;40.63;22.35;;;;;;;;;;5089457;28;20420;-84
2023/10/02 15:33:44;;;;;;;38.75;21.92;;;;;;;;;;5092551;28;20469;-84
2023/10/02 15:36:15;;;;;;;38.50;21.63;;;;;;;;;;5087103;28;20426;-84
2023/10/02 15:38:45;;;;;;;39.60;22.10;;;;;;;;;;5095378;28;20443;-84
2023/10/02 15:41:25;;;;;;;41.42;22.75;;;;;;;;;;5094838;28;20378;-84